createdAt,value
2022-11-21T00:00:48.792Z,10.40
2022-11-21T00:03:15.193Z,9.65
2022-11-21T00:05:42.974Z,10.38
2022-11-21T00:08:10.232Z,10.30
2022-11-21T00:10:36.858Z,9.35
2022-11-21T00:13:03.253Z,9.32
2022-11-21T00:15:29.640Z,9.27
2022-11-21T00:17:56.061Z,10.88
2022-11-21T00:20:22.508Z,11.10
2022-11-21T00:22:49.109Z,10.05
2022-11-21T00:25:15.688Z,7.80
2022-11-21T00:27:42.214Z,9.40
2022-11-21T00:30:09.547Z,9.52
2022-11-21T00:32:35.999Z,10.18
2022-11-21T00:35:02.431Z,10.18
2022-11-21T00:37:28.827Z,10.05
2022-11-21T00:39:55.214Z,9.18
2022-11-21T00:42:21.608Z,10.50
2022-11-21T00:44:48.004Z,9.55
2022-11-21T00:47:14.396Z,10.43
2022-11-21T00:49:40.845Z,10.07
2022-11-21T00:52:07.290Z,9.80
2022-11-21T00:54:33.660Z,10.30
2022-11-21T00:57:00.051Z,8.85
2022-11-21T00:59:26.434Z,10.20
2022-11-21T01:01:52.844Z,9.88
2022-11-21T01:04:19.212Z,9.32
2022-11-21T01:06:45.649Z,9.65
2022-11-21T01:09:12.056Z,9.13
2022-11-21T01:11:38.449Z,9.50
2022-11-21T01:14:04.926Z,8.68
2022-11-21T01:16:31.645Z,8.60
2022-11-21T01:18:58.110Z,9.75
2022-11-21T01:21:26.289Z,9.02
2022-11-21T01:23:52.665Z,8.80
2022-11-21T01:26:20.626Z,9.27
2022-11-21T01:28:47.113Z,9.90
2022-11-21T01:31:21.199Z,8.05
2022-11-21T01:33:47.973Z,10.02
2022-11-21T01:36:17.190Z,9.50
2022-11-21T01:38:45.188Z,8.38
2022-11-21T01:41:12.041Z,8.48
2022-11-21T01:43:38.828Z,8.07
2022-11-21T01:46:05.115Z,9.18
2022-11-21T01:48:54.127Z,8.90
2022-11-21T01:51:22.743Z,8.82
2022-11-21T01:54:07.706Z,8.35
2022-11-21T01:56:37.630Z,8.15
2022-11-21T01:59:04.029Z,7.43
2022-11-21T02:01:30.513Z,7.10
2022-11-21T02:03:57.106Z,8.40
2022-11-21T02:06:24.033Z,7.95
2022-11-21T02:08:50.443Z,7.32
2022-11-21T02:11:45.986Z,7.38
2022-11-21T02:14:12.378Z,6.40
2022-11-21T02:16:38.821Z,7.35
2022-11-21T02:19:05.290Z,7.93
2022-11-21T02:21:50.371Z,8.60
2022-11-21T02:24:46.007Z,7.25
2022-11-21T02:27:12.418Z,8.68
2022-11-21T02:29:39.448Z,8.27
2022-11-21T02:32:06.117Z,8.43
2022-11-21T02:34:33.105Z,8.85
2022-11-21T02:36:59.828Z,8.68
2022-11-21T02:39:28.734Z,7.63
2022-11-21T02:42:12.829Z,9.40
2022-11-21T02:44:46.168Z,7.50
2022-11-21T02:47:12.552Z,8.70
2022-11-21T02:49:56.462Z,8.23
2022-11-21T02:52:22.892Z,7.55
2022-11-21T02:54:49.285Z,9.93
2022-11-21T02:57:15.661Z,7.95
2022-11-21T02:59:42.127Z,7.35
2022-11-21T03:02:08.537Z,7.20
2022-11-21T03:04:34.943Z,8.20
2022-11-21T03:07:01.440Z,8.55
2022-11-21T03:09:27.884Z,8.10
2022-11-21T03:11:54.305Z,7.63
2022-11-21T03:14:20.729Z,7.65
2022-11-21T03:16:47.140Z,6.78
2022-11-21T03:19:13.512Z,6.70
2022-11-21T03:21:39.891Z,7.93
2022-11-21T03:24:06.939Z,7.05
2022-11-21T03:26:33.343Z,6.38
2022-11-21T03:28:59.851Z,7.32
2022-11-21T03:31:26.242Z,8.13
2022-11-21T03:33:52.635Z,7.45
2022-11-21T03:36:19.031Z,8.52
2022-11-21T03:38:45.454Z,7.63
2022-11-21T03:41:11.864Z,7.47
2022-11-21T03:43:38.287Z,7.90
2022-11-21T03:46:04.665Z,7.38
2022-11-21T03:48:31.491Z,7.78
2022-11-21T03:50:57.877Z,8.40
2022-11-21T03:53:24.265Z,8.20
2022-11-21T03:55:50.687Z,6.97
2022-11-21T03:58:17.087Z,7.78
2022-11-21T04:00:43.527Z,7.80
2022-11-21T04:03:09.943Z,8.07
2022-11-21T04:05:36.347Z,7.70
2022-11-21T04:08:02.773Z,7.55
2022-11-21T04:10:29.173Z,7.72
2022-11-21T04:12:55.559Z,7.35
2022-11-21T04:15:21.978Z,7.63
2022-11-21T04:17:48.360Z,6.97
2022-11-21T04:20:15.328Z,7.75
2022-11-21T04:22:42.286Z,8.63
2022-11-21T04:25:08.759Z,7.43
2022-11-21T04:27:35.181Z,7.40
2022-11-21T04:30:01.860Z,7.13
2022-11-21T04:32:28.271Z,8.32
2022-11-21T04:34:54.661Z,6.88
2022-11-21T04:37:21.134Z,7.53
2022-11-21T04:39:47.549Z,7.53
2022-11-21T04:42:13.988Z,7.35
2022-11-21T04:44:40.382Z,7.00
2022-11-21T04:47:06.778Z,8.13
2022-11-21T04:49:33.225Z,9.55
2022-11-21T04:51:59.718Z,7.45
2022-11-21T04:54:26.454Z,9.05
2022-11-21T04:56:53.076Z,7.28
2022-11-21T04:59:19.479Z,7.93
2022-11-21T05:01:45.889Z,7.38
2022-11-21T05:04:13.621Z,7.68
2022-11-21T05:06:39.989Z,7.15
2022-11-21T05:09:06.378Z,7.82
2022-11-21T05:11:32.794Z,8.00
2022-11-21T05:13:59.192Z,6.72
2022-11-21T05:16:25.585Z,7.18
2022-11-21T05:18:51.955Z,5.97
2022-11-21T05:21:18.370Z,6.30
2022-11-21T05:23:44.741Z,6.35
2022-11-21T05:26:11.241Z,6.82
2022-11-21T05:28:37.624Z,6.95
2022-11-21T05:31:04.053Z,6.80
2022-11-21T05:33:30.428Z,7.22
2022-11-21T05:35:56.871Z,7.20
2022-11-21T05:38:23.263Z,8.50
2022-11-21T05:40:52.169Z,7.68
2022-11-21T05:43:18.601Z,6.97
2022-11-21T05:45:45.039Z,7.28
2022-11-21T05:48:11.457Z,5.93
2022-11-21T05:50:37.924Z,6.10
2022-11-21T05:53:04.601Z,6.20
2022-11-21T05:55:31.476Z,6.97
2022-11-21T05:57:58.932Z,6.70
2022-11-21T06:00:25.401Z,6.82
2022-11-21T06:02:51.867Z,6.90
2022-11-21T06:05:18.294Z,7.13
2022-11-21T06:07:44.769Z,6.53
2022-11-21T06:10:11.390Z,6.68
2022-11-21T06:12:37.824Z,6.82
2022-11-21T06:15:04.374Z,7.70
2022-11-21T06:17:30.792Z,6.95
2022-11-21T06:19:57.252Z,6.70
2022-11-21T06:22:23.696Z,7.18
2022-11-21T06:24:50.104Z,7.68
2022-11-21T06:27:16.560Z,7.20
2022-11-21T06:29:42.983Z,7.63
2022-11-21T06:32:09.428Z,6.85
2022-11-21T06:34:35.837Z,7.60
2022-11-21T06:37:02.264Z,6.50
2022-11-21T06:39:28.670Z,6.20
2022-11-21T06:41:55.084Z,6.18
2022-11-21T06:44:21.473Z,6.57
2022-11-21T06:46:51.153Z,6.32
2022-11-21T06:51:44.281Z,6.30
2022-11-21T06:54:16.248Z,7.07
2022-11-21T06:56:43.095Z,7.03
2022-11-21T06:59:09.494Z,7.47
2022-11-21T07:01:35.945Z,6.65
2022-11-21T07:04:02.520Z,6.53
2022-11-21T07:06:28.924Z,6.28
2022-11-21T07:09:25.557Z,5.82
2022-11-21T07:11:41.760Z,6.30
2022-11-21T07:14:09.455Z,5.63
2022-11-21T07:16:36.067Z,6.28
2022-11-21T07:19:02.512Z,6.53
2022-11-21T07:21:28.925Z,6.15
2022-11-21T07:23:55.341Z,5.93
2022-11-21T07:26:21.794Z,6.88
2022-11-21T07:28:48.181Z,6.40
2022-11-21T07:31:14.665Z,6.97
2022-11-21T07:33:41.700Z,8.32
2022-11-21T07:36:08.132Z,7.25
2022-11-21T07:38:34.875Z,6.95
2022-11-21T07:41:01.291Z,7.43
2022-11-21T07:43:27.695Z,7.22
2022-11-21T07:45:54.201Z,7.30
2022-11-21T07:48:20.617Z,6.90
2022-11-21T07:50:47.021Z,5.50
2022-11-21T07:53:13.445Z,7.50
2022-11-21T07:55:40.947Z,6.05
2022-11-21T07:58:15.490Z,6.18
2022-11-21T08:00:42.122Z,6.80
2022-11-21T08:03:08.538Z,6.70
2022-11-21T08:05:43.199Z,6.43
2022-11-21T08:08:12.997Z,7.32
2022-11-21T08:10:40.354Z,6.90
2022-11-21T08:13:07.407Z,6.25
2022-11-21T08:15:33.822Z,6.65
2022-11-21T08:18:10.410Z,6.15
2022-11-21T08:20:36.832Z,6.85
2022-11-21T08:23:03.461Z,6.43
2022-11-21T08:25:29.986Z,6.72
2022-11-21T08:27:57.254Z,6.65
2022-11-21T08:30:23.898Z,6.88
2022-11-21T08:32:50.341Z,5.53
2022-11-21T08:35:16.976Z,7.07
2022-11-21T08:37:43.447Z,6.60
2022-11-21T08:40:10.685Z,5.47
2022-11-21T08:42:37.101Z,6.15
2022-11-21T08:45:05.256Z,5.97
2022-11-21T08:47:34.735Z,6.22
2022-11-21T08:50:05.817Z,5.53
2022-11-21T08:52:35.281Z,6.45
2022-11-21T08:55:01.716Z,6.28
2022-11-21T08:57:28.185Z,5.95
2022-11-21T08:59:54.672Z,6.32
2022-11-21T09:02:21.179Z,6.43
2022-11-21T09:04:47.586Z,5.78
2022-11-21T09:07:14.040Z,6.20
2022-11-21T09:09:40.505Z,6.88
2022-11-21T09:12:07.092Z,6.40
2022-11-21T09:14:33.628Z,6.35
2022-11-21T09:17:02.177Z,6.45
2022-11-21T09:19:29.382Z,6.68
2022-11-21T09:21:56.033Z,5.40
2022-11-21T09:24:22.470Z,5.40
2022-11-21T09:26:48.880Z,8.13
2022-11-21T09:29:15.337Z,7.55
2022-11-21T09:31:42.299Z,7.13
2022-11-21T09:34:08.971Z,6.95
2022-11-21T09:36:35.359Z,7.28
2022-11-21T09:39:01.964Z,7.40
2022-11-21T09:41:40.111Z,7.75
2022-11-21T09:44:17.124Z,6.88
2022-11-21T09:46:47.542Z,7.30
2022-11-21T09:49:13.997Z,6.18
2022-11-21T09:51:40.430Z,6.15
2022-11-21T09:54:09.738Z,6.82
2022-11-21T09:56:39.384Z,6.68
2022-11-21T09:59:27.402Z,7.68
2022-11-21T10:01:53.825Z,5.80
2022-11-21T10:04:20.227Z,6.53
2022-11-21T10:07:22.046Z,6.80
2022-11-21T10:10:03.745Z,7.22
2022-11-21T10:12:34.841Z,7.03
2022-11-21T10:15:25.860Z,6.55
2022-11-21T10:18:10.416Z,5.53
2022-11-21T10:21:15.325Z,6.07
2022-11-21T10:23:44.605Z,5.15
2022-11-21T10:26:42.762Z,6.13
2022-11-21T10:29:14.115Z,7.00
2022-11-21T10:31:40.513Z,6.82
2022-11-21T10:34:14.759Z,5.97
2022-11-21T10:36:42.654Z,5.97
2022-11-21T10:39:16.515Z,7.80
2022-11-21T10:41:50.813Z,7.82
2022-11-21T10:44:26.821Z,8.30
2022-11-21T10:46:57.059Z,8.55
2022-11-21T10:52:16.254Z,7.25
2022-11-21T10:55:02.411Z,9.20
2022-11-21T10:57:28.889Z,8.40
2022-11-21T11:00:01.388Z,8.68
2022-11-21T11:02:27.904Z,8.02
2022-11-21T11:05:29.628Z,8.20
2022-11-21T11:08:09.710Z,8.23
2022-11-21T11:10:36.948Z,7.93
2022-11-21T11:13:08.713Z,9.20
2022-11-21T11:16:05.159Z,8.25
2022-11-21T11:18:35.277Z,7.57
2022-11-21T11:23:37.035Z,6.88
2022-11-21T11:26:14.190Z,8.15
2022-11-21T11:28:40.593Z,8.32
2022-11-21T11:31:07.447Z,8.32
2022-11-21T11:33:37.466Z,8.13
2022-11-21T11:36:14.736Z,7.88
2022-11-21T11:38:52.633Z,8.07
2022-11-21T11:41:43.321Z,8.10
2022-11-21T11:44:13.205Z,7.40
2022-11-21T11:46:49.451Z,7.13
2022-11-21T11:49:30.859Z,7.20
2022-11-21T11:52:02.222Z,7.25
2022-11-21T11:54:31.860Z,7.85
2022-11-21T11:56:58.305Z,7.85
2022-11-21T11:59:27.858Z,6.55
2022-11-21T12:01:59.566Z,6.13
2022-11-21T12:04:26.816Z,6.40
2022-11-21T12:09:57.164Z,5.65
2022-11-21T12:12:37.124Z,6.35
2022-11-21T12:15:17.422Z,5.13
2022-11-21T12:17:55.944Z,5.80
2022-11-21T12:20:28.490Z,5.28
2022-11-21T12:22:54.920Z,5.13
2022-11-21T12:25:25.326Z,5.05
2022-11-21T12:27:53.447Z,5.82
2022-11-21T12:30:35.005Z,4.88
2022-11-21T12:33:06.797Z,5.13
2022-11-21T12:35:43.921Z,4.45
2022-11-21T12:38:20.272Z,5.55
2022-11-21T12:43:30.031Z,4.00
2022-11-21T12:46:05.281Z,4.28
2022-11-21T12:48:43.737Z,4.85
2022-11-21T12:51:16.033Z,4.40
2022-11-21T12:54:19.956Z,4.30
2022-11-21T12:56:54.960Z,4.35
2022-11-21T12:59:21.381Z,4.63
2022-11-21T13:02:00.161Z,4.88
2022-11-21T13:04:31.345Z,4.93
2022-11-21T13:06:57.762Z,4.82
2022-11-21T13:09:24.202Z,5.22
2022-11-21T13:11:53.598Z,4.65
2022-11-21T13:14:38.153Z,4.30
2022-11-21T13:17:25.879Z,4.72
2022-11-21T13:22:36.867Z,3.50
2022-11-21T13:25:04.822Z,5.07
2022-11-21T13:27:43.638Z,4.13
2022-11-21T13:30:10.060Z,3.85
2022-11-21T13:32:39.609Z,4.60
2022-11-21T13:35:21.191Z,3.88
2022-11-21T13:38:03.405Z,3.28
2022-11-21T13:40:29.795Z,2.83
2022-11-21T13:43:32.502Z,3.47
2022-11-21T13:45:59.491Z,3.20
2022-11-21T13:48:28.869Z,3.67
2022-11-21T13:51:27.449Z,3.20
2022-11-21T13:54:28.257Z,3.03
2022-11-21T13:57:13.490Z,3.35
2022-11-21T13:59:58.348Z,2.97
2022-11-21T14:02:36.080Z,2.65
2022-11-21T14:05:53.255Z,3.78
2022-11-21T14:08:23.877Z,2.70
2022-11-21T14:10:50.954Z,2.70
2022-11-21T14:13:27.843Z,3.08
2022-11-21T14:16:35.334Z,2.92
2022-11-21T14:19:01.740Z,2.50
2022-11-21T14:21:31.899Z,2.88
2022-11-21T14:24:01.373Z,3.35
2022-11-21T14:26:27.876Z,3.53
2022-11-21T14:28:54.653Z,3.10
2022-11-21T14:31:21.172Z,3.28
2022-11-21T14:33:47.900Z,3.85
2022-11-21T14:36:19.934Z,3.70
2022-11-21T14:38:51.019Z,3.80
2022-11-21T14:41:24.052Z,4.63
2022-11-21T14:43:59.476Z,3.78
2022-11-21T14:46:27.195Z,4.47
2022-11-21T14:48:53.860Z,4.18
2022-11-21T14:51:21.226Z,5.15
2022-11-21T14:53:48.186Z,4.72
2022-11-21T14:56:25.826Z,4.40
2022-11-21T14:58:52.259Z,4.40
2022-11-21T15:01:20.409Z,4.13
2022-11-21T15:04:04.522Z,3.80
2022-11-21T15:06:31.563Z,4.05
2022-11-21T15:11:54.336Z,5.25
2022-11-21T15:14:44.345Z,4.65
2022-11-21T15:17:15.813Z,4.43
2022-11-21T15:19:42.287Z,4.00
2022-11-21T15:22:37.029Z,5.05
2022-11-21T15:25:18.713Z,4.00
2022-11-21T15:27:47.219Z,4.90
2022-11-21T15:30:14.214Z,4.43
2022-11-21T15:32:59.189Z,4.22
2022-11-21T15:35:37.773Z,4.57
2022-11-21T15:38:15.796Z,4.72
2022-11-21T15:41:04.300Z,3.92
2022-11-21T15:43:38.123Z,4.10
2022-11-21T15:46:05.524Z,3.83
2022-11-21T15:48:31.925Z,3.88
2022-11-21T15:50:59.105Z,4.25
2022-11-21T15:53:25.597Z,4.03
2022-11-21T15:55:52.064Z,3.40
2022-11-21T15:58:18.551Z,3.90
2022-11-21T16:00:45.068Z,4.18
2022-11-21T16:03:11.525Z,4.18
2022-11-21T16:05:37.935Z,3.92
2022-11-21T16:08:04.896Z,4.10
2022-11-21T16:10:31.312Z,3.58
2022-11-21T16:12:57.738Z,4.40
2022-11-21T16:15:24.180Z,4.00
2022-11-21T16:17:51.608Z,3.63
2022-11-21T16:20:18.061Z,4.00
2022-11-21T16:22:47.813Z,4.45
2022-11-21T16:25:15.562Z,3.63
2022-11-21T16:27:42.026Z,3.45
2022-11-21T16:30:08.832Z,3.75
2022-11-21T16:32:35.253Z,3.60
2022-11-21T16:35:01.654Z,3.92
2022-11-21T16:37:28.073Z,3.25
2022-11-21T16:39:55.625Z,3.67
2022-11-21T16:42:22.074Z,3.90
2022-11-21T16:44:48.470Z,4.22
2022-11-21T16:47:14.996Z,4.35
2022-11-21T16:49:41.835Z,3.92
2022-11-21T16:52:10.145Z,3.65
2022-11-21T16:54:36.548Z,3.80
2022-11-21T16:57:03.008Z,4.32
2022-11-21T16:59:29.631Z,3.45
2022-11-21T17:01:56.223Z,4.78
2022-11-21T17:04:22.654Z,3.58
2022-11-21T17:06:49.123Z,4.03
2022-11-21T17:09:16.291Z,3.78
2022-11-21T17:11:42.750Z,3.60
2022-11-21T17:14:10.759Z,4.53
2022-11-21T17:16:39.407Z,4.10
2022-11-21T17:19:05.930Z,4.18
2022-11-21T17:21:32.413Z,4.30
2022-11-21T17:23:58.872Z,3.97
2022-11-21T17:26:29.059Z,4.63
2022-11-21T17:28:59.597Z,4.68
2022-11-21T17:31:26.227Z,4.57
2022-11-21T17:33:52.818Z,4.55
2022-11-21T17:36:20.608Z,4.82
2022-11-21T17:38:47.172Z,4.50
2022-11-21T17:41:14.803Z,4.95
2022-11-21T17:43:41.207Z,4.22
2022-11-21T17:46:14.841Z,4.32
2022-11-21T17:48:41.233Z,5.13
2022-11-21T17:51:15.404Z,4.70
2022-11-21T17:53:43.586Z,4.50
2022-11-21T17:56:16.909Z,5.05
2022-11-21T17:58:43.334Z,6.10
2022-11-21T18:01:10.932Z,4.78
2022-11-21T18:03:37.534Z,5.25
2022-11-21T18:06:09.619Z,4.43
2022-11-21T18:08:37.389Z,4.95
2022-11-21T18:11:04.543Z,5.43
2022-11-21T18:13:32.648Z,5.40
2022-11-21T18:16:07.001Z,5.97
2022-11-21T18:18:34.035Z,5.82
2022-11-21T18:21:11.334Z,6.05
2022-11-21T18:23:38.056Z,6.30
2022-11-21T18:26:11.133Z,6.13
2022-11-21T18:28:37.565Z,6.30
2022-11-21T18:31:09.028Z,6.22
2022-11-21T18:33:36.043Z,6.95
2022-11-21T18:36:03.078Z,5.25
2022-11-21T18:38:48.088Z,6.45
2022-11-21T18:41:23.741Z,6.45
2022-11-21T18:44:00.408Z,6.65
2022-11-21T18:46:28.707Z,7.07
2022-11-21T18:49:04.297Z,7.07
2022-11-21T18:51:32.393Z,7.05
2022-11-21T18:54:06.363Z,8.00
2022-11-21T18:56:32.929Z,8.23
2022-11-21T18:58:59.609Z,7.22
2022-11-21T19:01:27.928Z,8.52
2022-11-21T19:03:54.659Z,8.45
2022-11-21T19:06:21.976Z,8.18
2022-11-21T19:08:48.910Z,8.65
2022-11-21T19:11:15.516Z,8.30
2022-11-21T19:13:42.167Z,8.45
2022-11-21T19:16:11.413Z,8.20
2022-11-21T19:18:40.848Z,9.18
2022-11-21T19:21:13.355Z,8.10
2022-11-21T19:23:40.245Z,8.88
2022-11-21T19:26:08.754Z,8.88
2022-11-21T19:28:35.377Z,9.35
2022-11-21T19:31:02.581Z,9.35
2022-11-21T19:33:29.848Z,8.40
2022-11-21T19:36:08.585Z,8.27
2022-11-21T19:38:36.391Z,8.73
2022-11-21T19:41:04.180Z,10.23
2022-11-21T19:43:30.647Z,9.18
2022-11-21T19:46:01.876Z,9.05
2022-11-21T19:48:28.390Z,9.60
2022-11-21T19:50:58.836Z,8.88
2022-11-21T19:53:26.035Z,11.10
2022-11-21T19:55:52.602Z,8.48
2022-11-21T19:58:19.089Z,9.35
2022-11-21T20:00:45.622Z,10.10
2022-11-21T20:03:12.164Z,9.52
2022-11-21T20:05:38.655Z,9.07
2022-11-21T20:08:14.293Z,8.68
2022-11-21T20:10:43.792Z,9.48
2022-11-21T20:13:10.334Z,8.85
2022-11-21T20:15:37.892Z,8.23
2022-11-21T20:18:04.385Z,8.43
2022-11-21T20:20:30.865Z,8.30
2022-11-21T20:22:57.321Z,6.57
2022-11-21T20:25:23.700Z,8.48
2022-11-21T20:27:50.178Z,8.55
2022-11-21T20:30:16.821Z,8.77
2022-11-21T20:32:43.308Z,8.10
2022-11-21T20:35:09.697Z,8.82
2022-11-21T20:37:36.093Z,7.43
2022-11-21T20:40:02.584Z,7.78
2022-11-21T20:42:28.991Z,7.43
2022-11-21T20:47:41.923Z,6.88
2022-11-21T20:50:08.662Z,7.55
2022-11-21T20:55:21.528Z,7.55
2022-11-21T20:57:47.951Z,7.53
2022-11-21T21:00:14.844Z,8.25
2022-11-21T21:02:41.296Z,7.93
2022-11-21T21:05:08.038Z,6.97
2022-11-21T21:07:34.432Z,7.45
2022-11-21T21:10:00.864Z,7.65
2022-11-21T21:12:27.358Z,7.88
2022-11-21T21:14:53.776Z,8.38
2022-11-21T21:17:20.327Z,7.05
2022-11-21T21:19:46.839Z,7.72
2022-11-21T21:22:13.339Z,6.82
2022-11-21T21:24:39.848Z,8.00
2022-11-21T21:27:06.272Z,7.18
2022-11-21T21:29:32.976Z,7.35
2022-11-21T21:32:00.051Z,7.30
2022-11-21T21:34:26.657Z,7.63
2022-11-21T21:36:53.217Z,7.88
2022-11-21T21:39:20.848Z,8.05
2022-11-21T21:41:48.013Z,7.78
2022-11-21T21:44:15.052Z,8.00
2022-11-21T21:46:41.886Z,7.82
2022-11-21T21:49:08.383Z,7.30
2022-11-21T21:51:34.788Z,7.72
2022-11-21T21:54:01.481Z,7.78
2022-11-21T21:56:28.645Z,7.57
2022-11-21T21:58:56.277Z,7.53
2022-11-21T22:01:28.022Z,7.22
2022-11-21T22:03:55.541Z,8.23
2022-11-21T22:06:22.004Z,8.32
2022-11-21T22:08:50.184Z,7.07
2022-11-21T22:11:19.592Z,7.70
2022-11-21T22:13:47.189Z,7.25
2022-11-21T22:16:13.823Z,8.02
2022-11-21T22:18:41.662Z,7.53
2022-11-21T22:21:22.166Z,7.43
2022-11-21T22:24:17.807Z,7.55
2022-11-21T22:26:35.102Z,7.15
2022-11-21T22:29:01.525Z,6.63
2022-11-21T22:31:29.675Z,6.88
2022-11-21T22:33:56.134Z,7.15
2022-11-21T22:36:22.517Z,7.40
2022-11-21T22:38:51.868Z,6.68
2022-11-21T22:41:19.651Z,8.48
2022-11-21T22:43:49.577Z,7.45
2022-11-21T22:46:16.157Z,7.30
2022-11-21T22:48:42.616Z,7.00
2022-11-21T22:51:14.818Z,6.57
2022-11-21T22:53:41.280Z,7.28
2022-11-21T22:56:09.360Z,7.50
2022-11-21T22:58:37.567Z,7.45
2022-11-21T23:01:17.353Z,6.28
2022-11-21T23:03:43.839Z,6.85
2022-11-21T23:06:14.362Z,6.25
2022-11-21T23:08:40.883Z,6.28
2022-11-21T23:11:08.333Z,7.60
2022-11-21T23:13:35.108Z,6.47
2022-11-21T23:16:02.398Z,6.75
2022-11-21T23:18:28.895Z,6.53
2022-11-21T23:20:55.377Z,8.23
2022-11-21T23:23:21.843Z,6.97
2022-11-21T23:25:48.273Z,7.38
2022-11-21T23:28:14.678Z,7.30
2022-11-21T23:30:41.151Z,8.35
2022-11-21T23:33:07.567Z,8.10
2022-11-21T23:35:33.989Z,7.32
2022-11-21T23:38:00.407Z,6.28
2022-11-21T23:40:26.802Z,6.05
2022-11-21T23:42:53.235Z,7.18
2022-11-21T23:45:19.758Z,7.07
2022-11-21T23:47:46.702Z,6.95
2022-11-21T23:50:13.098Z,7.32
2022-11-21T23:52:39.493Z,7.72
2022-11-21T23:55:06.392Z,7.30
2022-11-21T23:57:32.873Z,6.65
2022-11-21T23:59:59.365Z,7.13
